createdAt,value
2017-04-16T00:00:14.604Z,2.9
2017-04-16T00:00:33.240Z,2.8
2017-04-16T00:00:51.871Z,2.8
2017-04-16T00:01:10.501Z,2.8
2017-04-16T00:01:29.132Z,2.8
2017-04-16T00:01:47.826Z,2.8
2017-04-16T00:02:06.458Z,2.8
2017-04-16T00:02:25.095Z,2.8
2017-04-16T00:02:43.729Z,2.8
2017-04-16T00:03:02.361Z,2.8
2017-04-16T00:03:20.993Z,2.8
2017-04-16T00:03:39.627Z,2.8
2017-04-16T00:03:58.262Z,2.8
2017-04-16T00:04:16.899Z,2.7
2017-04-16T00:04:35.533Z,2.7
2017-04-16T00:04:54.178Z,2.7
2017-04-16T00:05:12.831Z,2.7
2017-04-16T00:05:31.465Z,2.7
2017-04-16T00:05:50.107Z,2.7
2017-04-16T00:06:08.739Z,2.7
2017-04-16T00:06:27.375Z,2.7
2017-04-16T00:06:46.008Z,2.7
2017-04-16T00:07:04.649Z,2.7
2017-04-16T00:07:23.285Z,2.7
2017-04-16T00:07:41.923Z,2.7
2017-04-16T00:08:00.555Z,2.7
2017-04-16T00:08:19.205Z,2.7
2017-04-16T00:08:37.838Z,2.7
2017-04-16T00:08:56.467Z,2.7
2017-04-16T00:09:15.100Z,2.7
2017-04-16T00:09:33.759Z,2.7
2017-04-16T00:09:52.389Z,2.8
2017-04-16T00:10:11.019Z,2.8
2017-04-16T00:10:29.655Z,2.8
2017-04-16T00:10:48.287Z,2.8
2017-04-16T00:11:06.921Z,2.8
2017-04-16T00:11:25.555Z,2.8
2017-04-16T00:11:44.232Z,2.8
2017-04-16T00:12:02.869Z,2.8
2017-04-16T00:12:21.522Z,2.8
2017-04-16T00:12:40.153Z,2.8
2017-04-16T00:12:58.780Z,2.8
2017-04-16T00:13:17.413Z,2.8
2017-04-16T00:13:36.050Z,2.8
2017-04-16T00:13:54.694Z,2.9
2017-04-16T00:14:13.328Z,2.8
2017-04-16T00:14:31.962Z,2.9
2017-04-16T00:14:50.601Z,2.9
2017-04-16T00:15:09.259Z,2.9
2017-04-16T00:15:27.917Z,2.9
2017-04-16T00:15:46.554Z,2.8
2017-04-16T00:16:05.183Z,2.8
2017-04-16T00:16:23.814Z,2.8
2017-04-16T00:16:42.450Z,2.8
2017-04-16T00:17:01.081Z,2.8
2017-04-16T00:17:19.714Z,2.8
2017-04-16T00:17:38.350Z,2.8
2017-04-16T00:17:56.985Z,2.8
2017-04-16T00:18:15.622Z,2.8
2017-04-16T00:18:34.283Z,2.8
2017-04-16T00:18:52.924Z,2.8
2017-04-16T00:19:11.553Z,2.8
2017-04-16T00:19:30.182Z,2.8
2017-04-16T00:19:48.818Z,2.9
2017-04-16T00:20:07.459Z,2.9
2017-04-16T00:20:26.093Z,2.9
2017-04-16T00:20:44.800Z,2.9
2017-04-16T00:21:03.435Z,2.9
2017-04-16T00:21:22.070Z,2.9
2017-04-16T00:21:40.703Z,2.9
2017-04-16T00:21:59.360Z,2.9
2017-04-16T00:22:17.997Z,2.9
2017-04-16T00:22:36.631Z,2.9
2017-04-16T00:22:55.281Z,2.9
2017-04-16T00:23:13.917Z,2.9
2017-04-16T00:23:32.551Z,2.9
2017-04-16T00:23:51.184Z,2.9
2017-04-16T00:24:09.826Z,2.9
2017-04-16T00:24:28.461Z,2.9
2017-04-16T00:24:47.095Z,2.9
2017-04-16T00:25:05.729Z,2.9
2017-04-16T00:25:24.398Z,2.9
2017-04-16T00:25:43.030Z,2.9
2017-04-16T00:26:01.662Z,2.9
2017-04-16T00:26:20.482Z,2.9
2017-04-16T00:26:39.130Z,2.9
2017-04-16T00:26:57.764Z,2.9
2017-04-16T00:27:16.397Z,2.9
2017-04-16T00:27:35.033Z,2.9
2017-04-16T00:27:53.674Z,2.9
2017-04-16T00:28:12.341Z,2.9
2017-04-16T00:28:30.974Z,2.9
2017-04-16T00:28:49.605Z,2.9
2017-04-16T00:29:08.242Z,2.9
2017-04-16T00:29:26.875Z,2.9
2017-04-16T00:29:45.515Z,2.9
2017-04-16T00:30:04.174Z,2.9
2017-04-16T00:30:22.803Z,2.9
2017-04-16T00:30:41.451Z,2.9
2017-04-16T00:31:00.096Z,2.9
2017-04-16T00:31:18.728Z,2.8
2017-04-16T00:31:37.359Z,2.8
2017-04-16T00:31:55.996Z,2.8
2017-04-16T00:32:14.632Z,2.8
2017-04-16T00:32:33.268Z,2.8
2017-04-16T00:32:51.906Z,2.8
2017-04-16T00:33:10.542Z,2.8
2017-04-16T00:33:29.222Z,2.8
2017-04-16T00:33:47.858Z,2.7
2017-04-16T00:34:06.493Z,2.8
2017-04-16T00:34:25.130Z,2.8
2017-04-16T00:34:43.758Z,2.8
2017-04-16T00:35:02.394Z,2.8
2017-04-16T00:35:21.137Z,2.8
2017-04-16T00:35:39.775Z,2.8
2017-04-16T00:35:58.406Z,2.8
2017-04-16T00:36:17.036Z,2.8
2017-04-16T00:36:35.670Z,2.8
2017-04-16T00:36:54.329Z,2.9
2017-04-16T00:37:12.964Z,2.8
2017-04-16T00:37:31.596Z,2.8
2017-04-16T00:37:50.226Z,2.8
2017-04-16T00:38:08.863Z,2.8
2017-04-16T00:38:27.509Z,2.8
2017-04-16T00:38:46.172Z,2.8
2017-04-16T00:39:04.807Z,2.8
2017-04-16T00:39:23.442Z,2.8
2017-04-16T00:39:42.081Z,2.8
2017-04-16T00:40:00.712Z,2.8
2017-04-16T00:40:19.370Z,2.8
2017-04-16T00:40:37.999Z,2.8
2017-04-16T00:40:56.637Z,2.8
2017-04-16T00:41:15.272Z,2.8
2017-04-16T00:41:33.904Z,2.8
2017-04-16T00:41:52.552Z,2.8
2017-04-16T00:42:11.184Z,2.8
2017-04-16T00:42:29.819Z,2.8
2017-04-16T00:42:48.457Z,2.8
2017-04-16T00:43:07.093Z,2.7
2017-04-16T00:43:25.726Z,2.7
2017-04-16T00:43:44.372Z,2.7
2017-04-16T00:44:03.026Z,2.7
2017-04-16T00:44:21.672Z,2.7
2017-04-16T00:44:40.308Z,2.7
2017-04-16T00:44:58.942Z,2.7
2017-04-16T00:45:17.606Z,2.7
2017-04-16T00:45:36.239Z,2.7
2017-04-16T00:45:54.898Z,2.7
2017-04-16T00:46:13.530Z,2.7
2017-04-16T00:46:32.272Z,2.7
2017-04-16T00:46:50.900Z,2.6
2017-04-16T00:47:09.538Z,2.6
2017-04-16T00:47:28.173Z,2.6
2017-04-16T00:47:46.807Z,2.6
2017-04-16T00:48:05.443Z,2.6
2017-04-16T00:48:24.099Z,2.6
2017-04-16T00:48:42.730Z,2.6
2017-04-16T00:49:01.366Z,2.6
2017-04-16T00:49:20.023Z,2.6
2017-04-16T00:49:38.660Z,2.6
2017-04-16T00:49:57.305Z,2.6
2017-04-16T00:50:15.939Z,2.6
2017-04-16T00:50:34.574Z,2.6
2017-04-16T00:50:53.207Z,2.6
2017-04-16T00:51:11.844Z,2.6
2017-04-16T00:51:30.478Z,2.6
2017-04-16T00:51:49.141Z,2.5
2017-04-16T00:52:07.777Z,2.6
2017-04-16T00:52:26.413Z,2.6
2017-04-16T00:52:45.047Z,2.6
2017-04-16T00:53:03.681Z,2.6
2017-04-16T00:53:22.315Z,2.5
2017-04-16T00:53:40.955Z,2.5
2017-04-16T00:53:59.592Z,2.5
2017-04-16T00:54:18.227Z,2.5
2017-04-16T00:54:36.870Z,2.6
2017-04-16T00:54:55.504Z,2.6
2017-04-16T00:55:14.165Z,2.6
2017-04-16T00:55:32.799Z,2.6
2017-04-16T00:55:51.437Z,2.6
2017-04-16T00:56:10.070Z,2.6
2017-04-16T00:56:28.702Z,2.6
2017-04-16T00:56:47.338Z,2.6
2017-04-16T00:57:05.975Z,2.6
2017-04-16T00:57:24.614Z,2.6
2017-04-16T00:57:43.249Z,2.6
2017-04-16T00:58:01.882Z,2.5
2017-04-16T00:58:20.514Z,2.5
2017-04-16T00:58:39.173Z,2.5
2017-04-16T00:58:57.809Z,2.5
2017-04-16T00:59:16.443Z,2.5
2017-04-16T00:59:35.075Z,2.5
2017-04-16T00:59:53.727Z,2.5
2017-04-16T01:00:12.363Z,2.5
2017-04-16T01:00:30.994Z,2.5
2017-04-16T01:00:49.627Z,2.5
2017-04-16T01:01:08.425Z,2.5
2017-04-16T01:01:27.055Z,2.5
2017-04-16T01:01:45.691Z,2.5
2017-04-16T01:02:04.330Z,2.5
2017-04-16T01:02:22.962Z,2.5
2017-04-16T01:02:41.598Z,2.4
2017-04-16T01:03:00.229Z,2.4
2017-04-16T01:03:18.861Z,2.4
2017-04-16T01:03:37.527Z,2.4
2017-04-16T01:03:56.165Z,2.4
2017-04-16T01:04:14.801Z,2.4
2017-04-16T01:04:33.431Z,2.4
2017-04-16T01:04:52.063Z,2.4
2017-04-16T01:05:10.714Z,2.4
2017-04-16T01:05:29.350Z,2.4
2017-04-16T01:05:47.983Z,2.4
2017-04-16T01:06:06.622Z,2.4
2017-04-16T01:06:25.258Z,2.4
2017-04-16T01:06:43.906Z,2.4
2017-04-16T01:07:02.558Z,2.4
2017-04-16T01:07:21.194Z,2.4
2017-04-16T01:07:39.826Z,2.4
2017-04-16T01:07:58.462Z,2.4
2017-04-16T01:08:17.095Z,2.4
2017-04-16T01:08:35.726Z,2.4
2017-04-16T01:08:54.364Z,2.4
2017-04-16T01:09:12.997Z,2.3
2017-04-16T01:09:31.630Z,2.3
2017-04-16T01:09:50.262Z,2.3
2017-04-16T01:10:08.963Z,2.3
2017-04-16T01:10:27.622Z,2.3
2017-04-16T01:10:46.257Z,2.3
2017-04-16T01:11:04.892Z,2.2
2017-04-16T01:11:23.521Z,2.2
2017-04-16T01:11:42.156Z,2.2
2017-04-16T01:12:00.789Z,2.2
2017-04-16T01:12:19.425Z,2.2
2017-04-16T01:12:38.060Z,2.2
2017-04-16T01:12:56.696Z,2.1
2017-04-16T01:13:15.333Z,2.1
2017-04-16T01:13:33.998Z,2.1
2017-04-16T01:13:52.641Z,2.1
2017-04-16T01:14:11.274Z,2.1
2017-04-16T01:14:29.905Z,2
2017-04-16T01:14:48.538Z,2
2017-04-16T01:15:07.170Z,2
2017-04-16T01:15:25.803Z,2
2017-04-16T01:15:44.466Z,2
2017-04-16T01:16:03.096Z,2
2017-04-16T01:16:21.738Z,1.9
2017-04-16T01:16:40.375Z,1.9
2017-04-16T01:16:59.033Z,1.9
2017-04-16T01:17:17.674Z,1.9
2017-04-16T01:17:36.307Z,1.8
2017-04-16T01:17:54.946Z,1.8
2017-04-16T01:18:13.580Z,1.8
2017-04-16T01:18:32.213Z,1.8
2017-04-16T01:18:50.850Z,1.8
2017-04-16T01:19:09.481Z,1.8
2017-04-16T01:19:28.120Z,1.8
2017-04-16T01:19:46.757Z,1.8
2017-04-16T01:20:05.392Z,1.8
2017-04-16T01:20:24.060Z,1.8
2017-04-16T01:20:42.689Z,1.8
2017-04-16T01:21:01.347Z,1.8
2017-04-16T01:21:19.986Z,1.8
2017-04-16T01:21:38.617Z,1.8
2017-04-16T01:21:57.253Z,1.8
2017-04-16T01:22:15.886Z,1.8
2017-04-16T01:22:34.516Z,1.8
2017-04-16T01:22:53.151Z,1.8
2017-04-16T01:23:11.784Z,1.8
2017-04-16T01:23:30.417Z,1.8
2017-04-16T01:23:49.077Z,1.8
2017-04-16T01:24:07.711Z,1.8
2017-04-16T01:24:26.347Z,1.7
2017-04-16T01:24:45.048Z,1.7
2017-04-16T01:25:03.676Z,1.7
2017-04-16T01:25:22.311Z,1.7
2017-04-16T01:25:40.948Z,1.7
2017-04-16T01:25:59.581Z,1.7
2017-04-16T01:26:18.222Z,1.7
2017-04-16T01:26:36.853Z,1.7
2017-04-16T01:26:55.485Z,1.6
2017-04-16T01:27:14.144Z,1.7
2017-04-16T01:27:32.781Z,1.6
2017-04-16T01:27:51.419Z,1.6
2017-04-16T01:28:10.053Z,1.6
2017-04-16T01:28:28.694Z,1.6
2017-04-16T01:28:47.327Z,1.6
2017-04-16T01:29:05.962Z,1.6
2017-04-16T01:29:24.598Z,1.6
2017-04-16T01:29:43.233Z,1.6
2017-04-16T01:30:01.876Z,1.6
2017-04-16T01:30:20.507Z,1.6
2017-04-16T01:30:39.157Z,1.6
2017-04-16T01:30:57.790Z,1.6
2017-04-16T01:31:16.425Z,1.5
2017-04-16T01:31:35.104Z,1.5
2017-04-16T01:31:53.733Z,1.5
2017-04-16T01:32:12.386Z,1.5
2017-04-16T01:32:31.016Z,1.5
2017-04-16T01:32:49.647Z,1.5
2017-04-16T01:33:08.280Z,1.5
2017-04-16T01:33:26.909Z,1.5
2017-04-16T01:33:45.688Z,1.5
2017-04-16T01:34:04.325Z,1.5
2017-04-16T01:34:22.963Z,1.5
2017-04-16T01:34:41.601Z,1.5
2017-04-16T01:35:00.233Z,1.5
2017-04-16T01:35:18.893Z,1.5
2017-04-16T01:35:37.527Z,1.5
2017-04-16T01:35:56.164Z,1.5
2017-04-16T01:36:14.800Z,1.5
2017-04-16T01:36:33.431Z,1.5
2017-04-16T01:36:52.073Z,1.5
2017-04-16T01:37:10.705Z,1.5
2017-04-16T01:37:29.339Z,1.5
2017-04-16T01:37:47.971Z,1.5
2017-04-16T01:38:06.609Z,1.5
2017-04-16T01:38:25.243Z,1.5
2017-04-16T01:38:43.905Z,1.5
2017-04-16T01:39:02.537Z,1.5
2017-04-16T01:39:21.170Z,1.4
2017-04-16T01:39:39.804Z,1.4
2017-04-16T01:39:58.439Z,1.4
2017-04-16T01:40:17.075Z,1.4
2017-04-16T01:40:35.711Z,1.4
2017-04-16T01:40:54.351Z,1.4
2017-04-16T01:41:12.986Z,1.4
2017-04-16T01:41:31.623Z,1.4
2017-04-16T01:41:50.265Z,1.4
2017-04-16T01:42:08.952Z,1.4
2017-04-16T01:42:27.581Z,1.3
2017-04-16T01:42:46.212Z,1.4
2017-04-16T01:43:04.847Z,1.4
2017-04-16T01:43:23.489Z,1.4
2017-04-16T01:43:42.134Z,1.4
2017-04-16T01:44:00.766Z,1.4
2017-04-16T01:44:19.398Z,1.5
2017-04-16T01:44:38.034Z,1.5
2017-04-16T01:44:56.665Z,1.6
2017-04-16T01:45:15.298Z,1.6
2017-04-16T01:45:33.953Z,1.6
2017-04-16T01:45:52.585Z,1.7
2017-04-16T01:46:11.219Z,1.7
2017-04-16T01:46:29.852Z,1.7
2017-04-16T01:46:48.492Z,1.7
2017-04-16T01:47:07.124Z,1.7
2017-04-16T01:47:25.782Z,1.7
2017-04-16T01:47:44.422Z,1.7
2017-04-16T01:48:03.056Z,1.7
2017-04-16T01:48:21.697Z,1.7
2017-04-16T01:48:40.331Z,1.7
2017-04-16T01:48:58.996Z,1.7
2017-04-16T01:49:17.626Z,1.7
2017-04-16T01:49:36.262Z,1.7
2017-04-16T01:49:54.898Z,1.7
2017-04-16T01:50:13.528Z,1.7
2017-04-16T01:50:32.163Z,1.7
2017-04-16T01:50:50.794Z,1.7
2017-04-16T01:51:09.425Z,1.6
2017-04-16T01:51:28.058Z,1.6
2017-04-16T01:51:46.694Z,1.6
2017-04-16T01:52:05.330Z,1.6
2017-04-16T01:52:23.987Z,1.6
2017-04-16T01:52:42.646Z,1.5
2017-04-16T01:53:01.281Z,1.5
2017-04-16T01:53:19.913Z,1.5
2017-04-16T01:53:38.545Z,1.5
2017-04-16T01:53:57.186Z,1.5
2017-04-16T01:54:15.824Z,1.5
2017-04-16T01:54:34.459Z,1.4
2017-04-16T01:54:53.090Z,1.4
2017-04-16T01:55:11.725Z,1.5
2017-04-16T01:55:30.358Z,1.5
2017-04-16T01:55:49.022Z,1.5
2017-04-16T01:56:07.651Z,1.5
2017-04-16T01:56:26.283Z,1.5
2017-04-16T01:56:44.913Z,1.5
2017-04-16T01:57:03.548Z,1.5
2017-04-16T01:57:22.193Z,1.5
2017-04-16T01:57:40.822Z,1.5
2017-04-16T01:57:59.459Z,1.5
2017-04-16T01:58:18.090Z,1.5
2017-04-16T01:58:36.726Z,1.4
2017-04-16T01:58:55.362Z,1.4
2017-04-16T01:59:14.019Z,1.4
2017-04-16T01:59:32.660Z,1.4
2017-04-16T01:59:51.293Z,1.4
2017-04-16T02:00:09.924Z,1.4
2017-04-16T02:00:28.556Z,1.4
2017-04-16T02:00:47.190Z,1.4
2017-04-16T02:01:05.820Z,1.4
2017-04-16T02:01:24.456Z,1.4
2017-04-16T02:01:43.095Z,1.4
2017-04-16T02:02:01.758Z,1.3
2017-04-16T02:02:20.387Z,1.4
2017-04-16T02:02:39.040Z,1.4
2017-04-16T02:02:57.913Z,1.3
2017-04-16T02:03:16.566Z,1.3
2017-04-16T02:03:35.210Z,1.4
2017-04-16T02:03:53.884Z,1.3
2017-04-16T02:04:12.514Z,1.3
2017-04-16T02:04:31.145Z,1.3
2017-04-16T02:04:49.785Z,1.4
2017-04-16T02:05:08.422Z,1.3
2017-04-16T02:05:27.053Z,1.3
2017-04-16T02:05:45.687Z,1.3
2017-04-16T02:06:04.315Z,1.3
2017-04-16T02:06:22.953Z,1.3
2017-04-16T02:06:41.588Z,1.3
2017-04-16T02:07:00.227Z,1.3
2017-04-16T02:07:18.890Z,1.4
2017-04-16T02:07:37.522Z,1.4
2017-04-16T02:07:56.158Z,1.4
2017-04-16T02:08:14.793Z,1.3
2017-04-16T02:08:33.435Z,1.3
2017-04-16T02:08:52.071Z,1.3
2017-04-16T02:09:10.702Z,1.3
2017-04-16T02:09:29.341Z,1.3
2017-04-16T02:09:47.975Z,1.3
2017-04-16T02:10:06.610Z,1.3
2017-04-16T02:10:25.247Z,1.3
2017-04-16T02:10:43.904Z,1.3
2017-04-16T02:11:02.537Z,1.3
2017-04-16T02:11:21.168Z,1.3
2017-04-16T02:11:39.797Z,1.3
2017-04-16T02:11:58.517Z,1.3
2017-04-16T02:12:17.166Z,1.2
2017-04-16T02:12:35.804Z,1.2
2017-04-16T02:12:54.438Z,1.3
2017-04-16T02:13:13.073Z,1.2
2017-04-16T02:13:31.708Z,1.2
2017-04-16T02:13:50.371Z,1.3
2017-04-16T02:14:09.019Z,1.2
2017-04-16T02:14:27.653Z,1.2
2017-04-16T02:14:46.286Z,1.2
2017-04-16T02:15:04.919Z,1.2
2017-04-16T02:15:23.559Z,1.2
2017-04-16T02:15:42.232Z,1.2
2017-04-16T02:16:00.871Z,1.2
2017-04-16T02:16:19.501Z,1.2
2017-04-16T02:16:38.157Z,1.3
2017-04-16T02:16:56.797Z,1.2
2017-04-16T02:17:15.449Z,1.3
2017-04-16T02:17:34.078Z,1.3
2017-04-16T02:17:52.710Z,1.3
2017-04-16T02:18:11.345Z,1.3
2017-04-16T02:18:29.985Z,1.3
2017-04-16T02:18:48.631Z,1.2
2017-04-16T02:19:07.276Z,1.2
2017-04-16T02:19:25.911Z,1.2
2017-04-16T02:19:44.552Z,1.2
2017-04-16T02:20:03.185Z,1.2
2017-04-16T02:20:21.820Z,1.2
2017-04-16T02:20:40.455Z,1.2
2017-04-16T02:20:59.091Z,1.2
2017-04-16T02:21:17.730Z,1.2
2017-04-16T02:21:36.362Z,1.2
2017-04-16T02:21:54.994Z,1.1
2017-04-16T02:22:13.642Z,1.2
2017-04-16T02:22:32.273Z,1.1
2017-04-16T02:22:50.905Z,1.2
2017-04-16T02:23:09.539Z,1.2
2017-04-16T02:23:28.169Z,1.2
2017-04-16T02:23:46.800Z,1.2
2017-04-16T02:24:05.428Z,1.2
2017-04-16T02:24:24.088Z,1.2
2017-04-16T02:24:42.720Z,1.3
2017-04-16T02:25:01.358Z,1.3
2017-04-16T02:25:19.991Z,1.3
2017-04-16T02:25:38.646Z,1.3
2017-04-16T02:25:57.280Z,1.3
2017-04-16T02:26:15.914Z,1.4
2017-04-16T02:26:34.556Z,1.4
2017-04-16T02:26:53.190Z,1.4
2017-04-16T02:27:11.823Z,1.5
2017-04-16T02:27:30.464Z,1.5
2017-04-16T02:27:49.095Z,1.6
2017-04-16T02:28:07.728Z,1.6
2017-04-16T02:28:26.363Z,1.6
2017-04-16T02:28:45.001Z,1.6
2017-04-16T02:29:03.654Z,1.6
2017-04-16T02:29:22.294Z,1.6
2017-04-16T02:29:40.948Z,1.6
2017-04-16T02:29:59.581Z,1.6
2017-04-16T02:30:18.209Z,1.6
2017-04-16T02:30:36.843Z,1.6
2017-04-16T02:30:55.476Z,1.6
2017-04-16T02:31:14.113Z,1.6
2017-04-16T02:31:32.745Z,1.7
2017-04-16T02:31:51.377Z,1.7
2017-04-16T02:32:10.022Z,1.7
2017-04-16T02:32:28.690Z,1.8
2017-04-16T02:32:47.320Z,1.8
2017-04-16T02:33:05.948Z,1.9
2017-04-16T02:33:24.587Z,1.9
2017-04-16T02:33:43.223Z,2
2017-04-16T02:34:01.862Z,2
2017-04-16T02:34:20.492Z,2.1
2017-04-16T02:34:39.127Z,2.1
2017-04-16T02:34:57.791Z,2.2
2017-04-16T02:35:16.424Z,2.2
2017-04-16T02:35:35.071Z,2.3
2017-04-16T02:35:53.738Z,2.3
2017-04-16T02:36:12.382Z,2.4
2017-04-16T02:36:31.014Z,2.4
2017-04-16T02:36:49.651Z,2.4
2017-04-16T02:37:08.283Z,2.4
2017-04-16T02:37:26.923Z,2.5
2017-04-16T02:37:45.557Z,2.5
2017-04-16T02:38:04.194Z,2.5
2017-04-16T02:38:22.827Z,2.5
2017-04-16T02:38:41.458Z,2.5
2017-04-16T02:39:00.092Z,2.5
2017-04-16T02:39:18.748Z,2.5
2017-04-16T02:39:37.380Z,2.5
2017-04-16T02:39:56.019Z,2.6
2017-04-16T02:40:14.680Z,2.6
2017-04-16T02:40:33.312Z,2.6
2017-04-16T02:40:51.949Z,2.6
2017-04-16T02:41:10.585Z,2.6
2017-04-16T02:41:29.218Z,2.6
2017-04-16T02:41:47.853Z,2.6
2017-04-16T02:42:06.487Z,2.6
2017-04-16T02:42:25.125Z,2.6
2017-04-16T02:42:43.785Z,2.7
2017-04-16T02:43:02.424Z,2.7
2017-04-16T02:43:21.061Z,2.7
2017-04-16T02:43:39.698Z,2.7
2017-04-16T02:43:58.332Z,2.7
2017-04-16T02:44:16.972Z,2.8
2017-04-16T02:44:35.609Z,2.8
2017-04-16T02:44:54.242Z,2.8
2017-04-16T02:45:12.873Z,2.9
2017-04-16T02:45:31.512Z,2.9
2017-04-16T02:45:50.146Z,2.9
2017-04-16T02:46:08.809Z,2.9
2017-04-16T02:46:27.439Z,2.9
2017-04-16T02:46:46.070Z,3
2017-04-16T02:47:04.700Z,3
2017-04-16T02:47:23.340Z,3
2017-04-16T02:47:42.002Z,3
2017-04-16T02:48:00.653Z,3.1
2017-04-16T02:48:19.290Z,3.1
2017-04-16T02:48:37.920Z,3.1
2017-04-16T02:48:56.556Z,3.1
2017-04-16T02:49:15.192Z,3.1
2017-04-16T02:49:33.844Z,3.1
2017-04-16T02:49:52.477Z,3.1
2017-04-16T02:50:11.115Z,3
2017-04-16T02:50:29.752Z,3
2017-04-16T02:50:48.405Z,3
2017-04-16T02:51:07.068Z,3
2017-04-16T02:51:25.705Z,3
2017-04-16T02:51:44.348Z,3
2017-04-16T02:52:02.984Z,3
2017-04-16T02:52:21.617Z,3
2017-04-16T02:52:40.250Z,3
2017-04-16T02:52:58.884Z,3
2017-04-16T02:53:17.524Z,2.9
2017-04-16T02:53:36.171Z,3
2017-04-16T02:53:54.806Z,3
2017-04-16T02:54:13.451Z,3
2017-04-16T02:54:32.103Z,3
2017-04-16T02:54:50.741Z,3
2017-04-16T02:55:09.380Z,3
2017-04-16T02:55:28.015Z,3
2017-04-16T02:55:46.656Z,3
2017-04-16T02:56:05.302Z,3
2017-04-16T02:56:23.940Z,3
2017-04-16T02:56:42.576Z,3
2017-04-16T02:57:01.205Z,3
2017-04-16T02:57:19.843Z,3
2017-04-16T02:57:38.493Z,3
2017-04-16T02:57:57.129Z,3
2017-04-16T02:58:15.764Z,3.1
2017-04-16T02:58:34.393Z,3.1
2017-04-16T02:58:53.028Z,3.1
2017-04-16T02:59:11.718Z,3.1
2017-04-16T02:59:30.350Z,3.1
2017-04-16T02:59:48.981Z,3.1
2017-04-16T03:00:07.610Z,3.1
2017-04-16T03:00:26.245Z,3.1
2017-04-16T03:00:44.881Z,3.1
2017-04-16T03:01:03.532Z,3.1
2017-04-16T03:01:22.192Z,3.1
2017-04-16T03:01:40.836Z,3.1
2017-04-16T03:01:59.470Z,3.1
2017-04-16T03:02:18.106Z,3.1
2017-04-16T03:02:36.785Z,3.2
2017-04-16T03:02:55.436Z,3.2
2017-04-16T03:03:14.073Z,3.2
2017-04-16T03:03:32.709Z,3.2
2017-04-16T03:03:51.346Z,3.2
2017-04-16T03:04:09.985Z,3.1
2017-04-16T03:04:28.654Z,3.1
2017-04-16T03:04:47.346Z,3.1
2017-04-16T03:05:05.979Z,3.1
2017-04-16T03:05:24.612Z,3.1
2017-04-16T03:05:43.241Z,3.2
2017-04-16T03:06:01.876Z,3.2
2017-04-16T03:06:20.512Z,3.2
2017-04-16T03:06:39.154Z,3.2
2017-04-16T03:06:57.784Z,3.2
2017-04-16T03:07:16.415Z,3.2
2017-04-16T03:07:35.048Z,3.2
2017-04-16T03:07:53.706Z,3.2
2017-04-16T03:08:12.383Z,3.2
2017-04-16T03:08:31.020Z,3.2
2017-04-16T03:08:49.657Z,3.2
2017-04-16T03:09:08.286Z,3.2
2017-04-16T03:09:26.962Z,3.2
2017-04-16T03:09:45.593Z,3.3
2017-04-16T03:10:04.225Z,3.3
2017-04-16T03:10:22.861Z,3.3
2017-04-16T03:10:41.501Z,3.3
2017-04-16T03:11:00.134Z,3.3
2017-04-16T03:11:18.784Z,3.3
2017-04-16T03:11:37.437Z,3.3
2017-04-16T03:11:56.102Z,3.4
2017-04-16T03:12:14.737Z,3.4
2017-04-16T03:12:33.392Z,3.4
2017-04-16T03:12:52.041Z,3.4
2017-04-16T03:13:10.682Z,3.4
2017-04-16T03:13:29.318Z,3.4
2017-04-16T03:13:47.955Z,3.4
2017-04-16T03:14:06.587Z,3.4
2017-04-16T03:14:25.222Z,3.4
2017-04-16T03:14:43.861Z,3.4
2017-04-16T03:15:02.496Z,3.4
2017-04-16T03:15:21.126Z,3.4
2017-04-16T03:15:39.760Z,3.4
2017-04-16T03:15:58.408Z,3.4
2017-04-16T03:16:17.042Z,3.4
2017-04-16T03:16:35.674Z,3.4
2017-04-16T03:16:54.307Z,3.3
2017-04-16T03:17:12.959Z,3.3
2017-04-16T03:17:31.592Z,3.3
2017-04-16T03:17:50.225Z,3.3
2017-04-16T03:18:08.862Z,3.3
2017-04-16T03:18:27.494Z,3.3
2017-04-16T03:18:46.128Z,3.3
2017-04-16T03:19:04.765Z,3.3
2017-04-16T03:19:23.414Z,3.3
2017-04-16T03:19:42.049Z,3.3
2017-04-16T03:20:00.683Z,3.3
2017-04-16T03:20:19.313Z,3.4
2017-04-16T03:20:37.944Z,3.4
2017-04-16T03:20:56.589Z,3.4
2017-04-16T03:21:15.224Z,3.4
2017-04-16T03:21:33.859Z,3.4
2017-04-16T03:21:52.490Z,3.4
2017-04-16T03:22:11.119Z,3.4
2017-04-16T03:22:29.782Z,3.4
2017-04-16T03:22:48.434Z,3.4
2017-04-16T03:23:07.068Z,3.3
2017-04-16T03:23:25.701Z,3.3
2017-04-16T03:23:44.333Z,3.3
2017-04-16T03:24:02.967Z,3.3
2017-04-16T03:24:21.605Z,3.3
2017-04-16T03:24:40.237Z,3.3
2017-04-16T03:24:58.867Z,3.3
2017-04-16T03:25:17.498Z,3.3
2017-04-16T03:25:36.136Z,3.3
2017-04-16T03:25:54.771Z,3.3
2017-04-16T03:26:13.421Z,3.3
2017-04-16T03:26:32.051Z,3.3
2017-04-16T03:26:50.684Z,3.3
2017-04-16T03:27:09.318Z,3.3
2017-04-16T03:27:27.949Z,3.3
2017-04-16T03:27:46.591Z,3.3
2017-04-16T03:28:05.222Z,3.3
2017-04-16T03:28:23.853Z,3.3
2017-04-16T03:28:42.490Z,3.3
2017-04-16T03:29:01.125Z,3.3
2017-04-16T03:29:19.763Z,3.3
2017-04-16T03:29:38.418Z,3.3
2017-04-16T03:29:57.059Z,3.3
2017-04-16T03:30:15.696Z,3.3
2017-04-16T03:30:34.336Z,3.3
2017-04-16T03:30:52.969Z,3.3
2017-04-16T03:31:11.605Z,3.3
2017-04-16T03:31:30.241Z,3.3
2017-04-16T03:31:48.879Z,3.3
2017-04-16T03:32:07.512Z,3.3
2017-04-16T03:32:26.148Z,3.3
2017-04-16T03:32:44.784Z,3.3
2017-04-16T03:33:03.465Z,3.3
2017-04-16T03:33:22.137Z,3.3
2017-04-16T03:33:40.782Z,3.3
2017-04-16T03:33:59.419Z,3.2
2017-04-16T03:34:18.057Z,3.2
2017-04-16T03:34:36.695Z,3.2
2017-04-16T03:34:55.331Z,3.2
2017-04-16T03:35:13.966Z,3.2
2017-04-16T03:35:32.603Z,3.2
2017-04-16T03:35:51.242Z,3.2
2017-04-16T03:36:09.879Z,3.2
2017-04-16T03:36:28.539Z,3.2
2017-04-16T03:36:47.174Z,3.2
2017-04-16T03:37:05.808Z,3.2
2017-04-16T03:37:24.452Z,3.2
2017-04-16T03:37:43.093Z,3.2
2017-04-16T03:38:01.728Z,3.2
2017-04-16T03:38:20.368Z,3.2
2017-04-16T03:38:39.001Z,3.2
2017-04-16T03:38:57.667Z,3.2
2017-04-16T03:39:16.309Z,3.2
2017-04-16T03:39:34.953Z,3.2
2017-04-16T03:39:53.611Z,3.2
2017-04-16T03:40:12.247Z,3.2
2017-04-16T03:40:30.878Z,3.1
2017-04-16T03:40:49.509Z,3.1
2017-04-16T03:41:08.142Z,3.1
2017-04-16T03:41:26.792Z,3.1
2017-04-16T03:41:45.422Z,3.1
2017-04-16T03:42:04.055Z,3.1
2017-04-16T03:42:22.688Z,3.1
2017-04-16T03:42:41.337Z,3.1
2017-04-16T03:42:59.983Z,3.1
2017-04-16T03:43:18.640Z,3.1
2017-04-16T03:43:37.294Z,3.1
2017-04-16T03:43:55.930Z,3.1
2017-04-16T03:44:14.567Z,3.1
2017-04-16T03:44:33.199Z,3.1
2017-04-16T03:44:51.868Z,3.1
2017-04-16T03:45:10.505Z,3.1
2017-04-16T03:45:29.172Z,3.1
2017-04-16T03:45:47.800Z,3.1
2017-04-16T03:46:06.440Z,3.1
2017-04-16T03:46:25.083Z,3.1
2017-04-16T03:46:43.720Z,3.1
2017-04-16T03:47:02.352Z,3.1
2017-04-16T03:47:20.984Z,3
2017-04-16T03:47:39.618Z,3
2017-04-16T03:47:58.273Z,3
2017-04-16T03:48:16.907Z,3
2017-04-16T03:48:35.570Z,3
2017-04-16T03:48:54.215Z,3
2017-04-16T03:49:12.854Z,3
2017-04-16T03:49:31.494Z,3
2017-04-16T03:49:50.133Z,3
2017-04-16T03:50:08.770Z,2.9
2017-04-16T03:50:27.413Z,2.9
2017-04-16T03:50:46.053Z,2.9
2017-04-16T03:51:04.780Z,2.9
2017-04-16T03:51:23.451Z,2.9
2017-04-16T03:51:42.090Z,2.9
2017-04-16T03:52:00.729Z,2.9
2017-04-16T03:52:19.366Z,2.9
2017-04-16T03:52:38.005Z,2.9
2017-04-16T03:52:56.646Z,2.9
2017-04-16T03:53:15.280Z,2.9
2017-04-16T03:53:33.915Z,2.9
2017-04-16T03:53:52.555Z,2.9
2017-04-16T03:54:11.216Z,2.9
2017-04-16T03:54:29.860Z,2.9
2017-04-16T03:54:48.530Z,2.9
2017-04-16T03:55:07.169Z,2.9
2017-04-16T03:55:25.809Z,2.9
2017-04-16T03:55:44.451Z,2.9
2017-04-16T03:56:03.086Z,2.9
2017-04-16T03:56:21.761Z,2.9
2017-04-16T03:56:40.407Z,2.9
2017-04-16T03:56:59.047Z,2.9
2017-04-16T03:57:17.682Z,2.9
2017-04-16T03:57:36.315Z,2.9
2017-04-16T03:57:54.957Z,2.9
2017-04-16T03:58:13.602Z,2.9
2017-04-16T03:58:32.243Z,2.9
2017-04-16T03:58:50.888Z,2.9
2017-04-16T03:59:09.528Z,2.9
2017-04-16T03:59:28.184Z,2.9
2017-04-16T03:59:46.835Z,2.9
2017-04-16T04:00:05.470Z,2.9
2017-04-16T04:00:24.111Z,2.9
2017-04-16T04:00:42.751Z,2.9
2017-04-16T04:01:01.393Z,2.9
2017-04-16T04:01:20.029Z,2.9
2017-04-16T04:01:38.677Z,2.8
2017-04-16T04:01:57.321Z,2.8
2017-04-16T04:02:15.966Z,2.8
2017-04-16T04:02:34.606Z,2.8
2017-04-16T04:02:53.266Z,2.8
2017-04-16T04:03:11.906Z,2.8
2017-04-16T04:03:30.540Z,2.8
2017-04-16T04:03:49.207Z,2.8
2017-04-16T04:04:07.845Z,2.8
2017-04-16T04:04:26.487Z,2.8
2017-04-16T04:04:45.148Z,2.8
2017-04-16T04:05:03.790Z,2.8
2017-04-16T04:05:22.430Z,2.8
2017-04-16T04:05:41.070Z,2.8
2017-04-16T04:05:59.717Z,2.8
2017-04-16T04:06:18.386Z,2.8
2017-04-16T04:06:37.024Z,2.8
2017-04-16T04:06:55.796Z,2.8
2017-04-16T04:07:14.433Z,2.8
2017-04-16T04:07:33.071Z,2.8
2017-04-16T04:07:51.737Z,2.7
2017-04-16T04:08:10.371Z,2.7
2017-04-16T04:08:29.015Z,2.7
2017-04-16T04:08:47.662Z,2.7
2017-04-16T04:09:06.306Z,2.7
2017-04-16T04:09:24.943Z,2.6
2017-04-16T04:09:43.585Z,2.6
2017-04-16T04:10:02.244Z,2.6
2017-04-16T04:10:20.901Z,2.6
2017-04-16T04:10:39.538Z,2.6
2017-04-16T04:10:58.186Z,2.6
2017-04-16T04:11:16.819Z,2.6
2017-04-16T04:11:35.460Z,2.6
2017-04-16T04:11:54.101Z,2.6
2017-04-16T04:12:12.738Z,2.6
2017-04-16T04:12:31.521Z,2.6
2017-04-16T04:12:50.165Z,2.7
2017-04-16T04:13:08.806Z,2.7
2017-04-16T04:13:27.454Z,2.7
2017-04-16T04:13:46.103Z,2.7
2017-04-16T04:14:04.744Z,2.7
2017-04-16T04:14:23.413Z,2.7
2017-04-16T04:14:42.048Z,2.7
2017-04-16T04:15:00.683Z,2.7
2017-04-16T04:15:19.352Z,2.7
2017-04-16T04:15:37.991Z,2.7
2017-04-16T04:15:56.654Z,2.8
2017-04-16T04:16:15.291Z,2.8
2017-04-16T04:16:33.942Z,2.8
2017-04-16T04:16:52.585Z,2.8
2017-04-16T04:17:11.220Z,2.8
2017-04-16T04:17:29.858Z,2.8
2017-04-16T04:17:48.503Z,2.9